Hlavní strana
METAR-TAF:

METAR-TAF

Letiště :

Passo Rolle, Itálie

zeměpisná šířka: 46-18N, zeměpisná délka: 011-47E, výška: 2004 m

Aktuální stav počasí

Zpráva byla vytvořena před 25 minutami, v 09:55 UTC
Východojihovýchodní vítr 7 kt
Teplota 16°C
Vlhkost vzduchu 45%
Tlak 1025 hPa
Viditelnost 10 km a více
Oblačno až skoro zataženo ve výšce 3500 ft

METAR: LIVR 180955Z 11007KT 9999 BKN035 16/04 Q1025 RMK BKN MON CLD CIME VIS MIN 9999

Čas: 12:20 (10:20 UTC)


TAF: chybějící

Stav a předpovědi počasí z více než 4 000 letišť (zprávy METAR a TAF).

Červené a žluté tečky na mapě představují dostupné meteorologické stanice.

Když kurzor umístíte na tečku, zobrazí se název stanice.

Pak kliknutím zobrazíte stav a předpověď počasí.

Chcete-li změnit mapu, kliknutím na zelené tlačítko se znaménkem +mapu přiblížíte, kliknutím na zelené tlačítko se znaménkem – mapu oddálíte a kliknutím na zelené šipky přejdete na sousední mapy.


METAR-TAF: